createdAt,value
2022-10-11T00:00:47.539Z,15.10
2022-10-11T00:03:21.252Z,15.00
2022-10-11T00:05:54.098Z,14.90
2022-10-11T00:08:26.706Z,15.00
2022-10-11T00:11:06.317Z,14.90
2022-10-11T00:16:13.285Z,15.00
2022-10-11T00:18:45.172Z,15.00
2022-10-11T00:21:17.909Z,15.00
2022-10-11T00:23:49.985Z,14.90
2022-10-11T00:28:55.162Z,14.80
2022-10-11T00:31:30.917Z,14.80
2022-10-11T00:34:08.343Z,14.70
2022-10-11T00:39:14.573Z,14.70
2022-10-11T00:41:48.201Z,14.70
2022-10-11T00:44:26.636Z,14.60
2022-10-11T00:47:04.327Z,14.60
2022-10-11T00:50:04.018Z,14.60
2022-10-11T00:52:43.397Z,14.60
2022-10-11T00:55:18.815Z,14.60
2022-10-11T00:57:53.034Z,14.50
2022-10-11T01:02:59.216Z,14.50
2022-10-11T01:05:32.074Z,14.50
2022-10-11T01:08:05.021Z,14.40
2022-10-11T01:10:37.123Z,14.30
2022-10-11T01:13:29.688Z,14.30
2022-10-11T01:16:15.943Z,14.20
2022-10-11T01:19:28.420Z,14.20
2022-10-11T01:22:35.856Z,14.10
2022-10-11T01:25:24.463Z,14.10
2022-10-11T01:28:37.038Z,14.10
2022-10-11T01:31:47.856Z,14.20
2022-10-11T01:34:25.611Z,14.20
2022-10-11T01:37:13.879Z,14.20
2022-10-11T01:39:52.491Z,14.30
2022-10-11T01:42:26.746Z,14.30
2022-10-11T01:44:59.463Z,14.30
2022-10-11T01:47:32.254Z,14.30
2022-10-11T01:50:04.812Z,14.30
2022-10-11T01:52:45.050Z,14.30
2022-10-11T01:55:42.354Z,14.30
2022-10-11T01:58:33.983Z,14.30
2022-10-11T02:01:25.728Z,14.30
2022-10-11T02:04:25.474Z,14.30
2022-10-11T02:07:15.706Z,14.30
2022-10-11T02:09:53.260Z,14.40
2022-10-11T02:12:40.148Z,14.40
2022-10-11T02:15:14.710Z,14.40
2022-10-11T02:17:57.119Z,14.40
2022-10-11T02:20:32.735Z,14.50
2022-10-11T02:23:16.277Z,14.60
2022-10-11T02:25:49.223Z,14.60
2022-10-11T02:28:32.981Z,14.60
2022-10-11T02:31:06.819Z,14.60
2022-10-11T02:33:53.151Z,14.70
2022-10-11T02:36:44.757Z,14.70
2022-10-11T02:40:04.007Z,14.70
2022-10-11T02:42:43.380Z,14.70
2022-10-11T02:45:23.965Z,14.80
2022-10-11T02:47:56.637Z,14.80
2022-10-11T02:50:29.546Z,14.70
2022-10-11T02:53:01.443Z,14.70
2022-10-11T02:58:06.784Z,14.70
2022-10-11T03:00:39.512Z,14.70
2022-10-11T03:03:11.887Z,14.70
2022-10-11T03:05:44.435Z,14.60
2022-10-11T03:08:17.234Z,14.50
2022-10-11T03:10:49.566Z,14.50
2022-10-11T03:13:21.765Z,14.40
2022-10-11T03:16:03.348Z,14.30
2022-10-11T03:18:39.658Z,14.30
2022-10-11T03:21:12.375Z,14.40
2022-10-11T03:23:44.618Z,14.30
2022-10-11T03:26:17.572Z,14.20
2022-10-11T03:31:24.117Z,14.20
2022-10-11T03:33:56.441Z,14.10
2022-10-11T03:36:28.466Z,14.00
2022-10-11T03:39:01.416Z,14.00
2022-10-11T03:41:33.340Z,14.00
2022-10-11T03:44:06.158Z,13.90
2022-10-11T03:46:38.323Z,14.00
2022-10-11T03:49:11.052Z,13.90
2022-10-11T03:59:21.569Z,13.90
2022-10-11T04:01:53.531Z,13.80
2022-10-11T04:04:26.403Z,13.70
2022-10-11T04:06:58.385Z,13.70
2022-10-11T04:09:31.283Z,13.70
2022-10-11T04:12:03.888Z,13.60
2022-10-11T04:14:36.599Z,13.60
2022-10-11T04:17:08.486Z,13.60
2022-10-11T04:19:41.187Z,13.70
2022-10-11T04:22:13.124Z,13.50
2022-10-11T04:27:18.158Z,13.60
2022-10-11T04:29:50.952Z,13.60
2022-10-11T04:32:23.298Z,13.60
2022-10-11T04:34:55.953Z,13.60
2022-10-11T04:37:28.716Z,13.60
2022-10-11T04:40:00.700Z,13.60
2022-10-11T04:42:33.707Z,13.50
2022-10-11T04:45:06.609Z,13.50
2022-10-11T04:47:40.900Z,13.50
2022-10-11T04:52:45.962Z,13.60
2022-10-11T04:55:18.048Z,13.50
2022-10-11T04:57:50.875Z,13.40
2022-10-11T05:02:55.529Z,13.20
2022-10-11T05:05:28.364Z,13.10
2022-10-11T05:08:00.519Z,13.00
2022-10-11T05:18:11.050Z,12.70
2022-10-11T05:20:43.896Z,12.80
2022-10-11T05:23:16.144Z,12.80
2022-10-11T05:25:48.881Z,12.80
2022-10-11T05:30:54.876Z,12.80
2022-10-11T05:33:27.377Z,12.80
2022-10-11T05:36:00.916Z,12.80
2022-10-11T05:38:33.445Z,12.10
2022-10-11T05:41:07.333Z,12.90
2022-10-11T05:43:39.290Z,13.00
2022-10-11T05:46:12.926Z,13.10
2022-10-11T05:48:44.857Z,13.60
2022-10-11T05:51:17.631Z,13.10
2022-10-11T05:53:49.585Z,13.20
2022-10-11T05:56:25.620Z,13.30
2022-10-11T05:59:02.059Z,13.20
2022-10-11T06:04:08.362Z,13.20
2022-10-11T06:11:46.973Z,13.30
2022-10-11T06:16:53.187Z,13.50
2022-10-11T06:21:58.830Z,13.80
2022-10-11T06:24:33.871Z,14.70
2022-10-11T06:27:07.023Z,13.60
2022-10-11T06:29:39.419Z,13.60
2022-10-11T06:37:19.044Z,13.70
2022-10-11T06:42:24.656Z,13.80
2022-10-11T06:50:02.272Z,13.90
2022-10-11T06:52:36.536Z,13.90
2022-10-11T06:55:09.469Z,13.70
2022-10-11T06:57:42.216Z,13.90
2022-10-11T07:00:14.883Z,14.10
2022-10-11T07:02:49.718Z,14.10
2022-10-11T07:05:21.677Z,14.20
2022-10-11T07:07:54.555Z,14.10
2022-10-11T07:12:59.913Z,14.20
2022-10-11T07:15:31.948Z,14.20
2022-10-11T07:18:05.014Z,14.10
2022-10-11T07:20:36.989Z,14.20
2022-10-11T07:23:09.771Z,14.20
2022-10-11T07:25:41.762Z,14.10
2022-10-11T07:30:47.207Z,14.10
2022-10-11T07:35:57.070Z,14.30
2022-10-11T07:38:29.474Z,14.60
2022-10-11T07:41:05.864Z,14.90
2022-10-11T07:43:40.711Z,15.00
2022-10-11T07:51:21.950Z,15.60
2022-10-11T07:53:58.001Z,15.70
2022-10-11T07:56:30.778Z,15.90
2022-10-11T08:01:39.347Z,16.20
2022-10-11T08:04:11.323Z,16.50
2022-10-11T08:06:44.279Z,16.50
2022-10-11T08:14:22.779Z,16.60
2022-10-11T08:19:27.855Z,16.60
2022-10-11T08:22:00.080Z,16.60
2022-10-11T08:29:43.040Z,16.20
2022-10-11T08:37:21.768Z,16.10
2022-10-11T08:39:53.733Z,16.00
2022-10-11T08:42:36.477Z,16.00
2022-10-11T08:45:20.294Z,15.90
2022-10-11T08:48:03.453Z,15.90
2022-10-11T08:53:40.213Z,15.80
2022-10-11T08:56:14.767Z,15.80
2022-10-11T08:59:36.083Z,15.80
2022-10-11T09:02:43.631Z,15.60
2022-10-11T09:05:21.357Z,15.60
2022-10-11T09:08:22.611Z,15.60
2022-10-11T09:11:12.807Z,15.50
2022-10-11T09:14:07.805Z,15.40
2022-10-11T09:17:08.886Z,15.30
2022-10-11T09:20:02.820Z,15.30
2022-10-11T09:22:56.971Z,15.30
2022-10-11T09:25:52.327Z,15.30
2022-10-11T09:29:01.005Z,15.40
2022-10-11T09:34:13.324Z,15.70
2022-10-11T09:37:09.940Z,15.80
2022-10-11T09:39:55.778Z,15.90
2022-10-11T09:42:29.496Z,15.80
2022-10-11T09:45:01.923Z,16.00
2022-10-11T09:50:21.363Z,15.90
2022-10-11T09:52:57.552Z,15.90
2022-10-11T09:56:03.486Z,15.80
2022-10-11T09:58:38.721Z,15.90
2022-10-11T10:01:22.191Z,15.80
2022-10-11T10:04:24.390Z,15.70
2022-10-11T10:07:13.122Z,15.70
2022-10-11T10:09:45.727Z,15.70
2022-10-11T10:12:30.102Z,15.90
2022-10-11T10:15:14.908Z,16.00
2022-10-11T10:17:52.356Z,16.10
2022-10-11T10:20:35.678Z,15.90
2022-10-11T10:23:23.273Z,15.90
2022-10-11T10:26:17.082Z,16.00
2022-10-11T10:29:00.320Z,16.00
2022-10-11T10:32:12.807Z,16.00
2022-10-11T10:35:07.455Z,15.90
2022-10-11T10:37:52.804Z,16.00
2022-10-11T10:40:35.568Z,16.00
2022-10-11T10:43:15.904Z,16.00
2022-10-11T10:46:04.294Z,16.00
2022-10-11T10:52:41.407Z,16.00
2022-10-11T10:55:31.836Z,15.90
2022-10-11T10:58:49.235Z,16.00
2022-10-11T11:01:31.091Z,16.00
2022-10-11T11:04:32.894Z,16.00
2022-10-11T11:07:44.334Z,16.00
2022-10-11T11:10:25.770Z,16.10
2022-10-11T11:13:20.298Z,16.20
2022-10-11T11:18:38.805Z,16.40
2022-10-11T11:21:45.604Z,16.50
2022-10-11T11:24:35.263Z,16.60
2022-10-11T11:27:47.019Z,16.70
2022-10-11T11:31:07.209Z,16.70
2022-10-11T11:34:34.377Z,16.70
2022-10-11T11:37:36.579Z,16.80
2022-10-11T11:40:29.598Z,16.90
2022-10-11T11:43:16.001Z,16.90
2022-10-11T11:46:10.198Z,16.90
2022-10-11T11:48:44.296Z,17.00
2022-10-11T11:51:21.980Z,17.10
2022-10-11T11:54:37.721Z,17.10
2022-10-11T11:57:38.052Z,17.10
2022-10-11T12:00:24.716Z,17.10
2022-10-11T12:03:11.087Z,17.10
2022-10-11T12:06:12.709Z,17.10
2022-10-11T12:08:56.556Z,17.20
2022-10-11T12:11:49.167Z,17.10
2022-10-11T12:14:33.392Z,17.00
2022-10-11T12:17:19.863Z,16.90
2022-10-11T12:20:12.938Z,16.90
2022-10-11T12:22:55.423Z,17.10
2022-10-11T12:28:39.643Z,17.10
2022-10-11T12:31:25.297Z,17.10
2022-10-11T12:34:35.618Z,17.10
2022-10-11T12:37:20.404Z,17.20
2022-10-11T12:39:58.152Z,17.30
2022-10-11T12:42:37.077Z,17.30
2022-10-11T12:45:12.180Z,17.30
2022-10-11T12:48:31.902Z,17.00
2022-10-11T12:51:38.500Z,17.10
2022-10-11T12:54:37.441Z,17.20
2022-10-11T12:57:12.188Z,17.20
2022-10-11T12:59:46.706Z,17.40
2022-10-11T13:02:42.560Z,17.30
2022-10-11T13:05:27.727Z,17.30
2022-10-11T13:08:04.407Z,17.40
2022-10-11T13:10:44.254Z,17.50
2022-10-11T13:13:23.853Z,17.50
2022-10-11T13:16:08.994Z,17.50
2022-10-11T13:18:45.436Z,17.40
2022-10-11T13:21:39.687Z,17.40
2022-10-11T13:24:19.376Z,16.30
2022-10-11T13:26:55.805Z,17.50
2022-10-11T13:29:41.283Z,17.40
2022-10-11T13:32:24.859Z,17.40
2022-10-11T13:35:07.721Z,17.30
2022-10-11T13:37:46.385Z,17.30
2022-10-11T13:40:21.143Z,17.30
2022-10-11T13:42:55.807Z,17.20
2022-10-11T13:45:32.251Z,17.20
2022-10-11T13:48:05.679Z,17.20
2022-10-11T13:50:39.273Z,17.20
2022-10-11T13:55:58.923Z,17.10
2022-10-11T13:58:39.104Z,17.20
2022-10-11T14:01:24.840Z,17.20
2022-10-11T14:04:07.575Z,17.10
2022-10-11T14:07:00.271Z,17.10
2022-10-11T14:09:37.697Z,17.20
2022-10-11T14:12:30.893Z,17.30
2022-10-11T14:15:07.647Z,17.30
2022-10-11T14:17:45.540Z,17.20
2022-10-11T14:20:39.269Z,17.20
2022-10-11T14:23:13.260Z,17.30
2022-10-11T14:28:18.735Z,17.30
2022-10-11T14:30:51.113Z,17.30
2022-10-11T14:33:23.115Z,17.30
2022-10-11T14:35:58.194Z,17.30
2022-10-11T14:38:30.581Z,17.40
2022-10-11T14:46:24.094Z,17.50
2022-10-11T14:51:35.127Z,17.60
2022-10-11T14:56:40.744Z,17.60
2022-10-11T14:59:16.385Z,17.60
2022-10-11T15:04:29.741Z,17.60
2022-10-11T15:07:02.599Z,17.60
2022-10-11T15:09:34.595Z,17.50
2022-10-11T15:14:39.448Z,17.40
2022-10-11T15:17:13.296Z,20.10
2022-10-11T15:19:45.237Z,17.30
2022-10-11T15:22:17.828Z,17.20
2022-10-11T15:27:26.040Z,17.10
2022-10-11T15:32:30.883Z,17.10
2022-10-11T15:35:02.829Z,17.00
2022-10-11T15:40:41.420Z,16.80
2022-10-11T15:43:14.758Z,16.90
2022-10-11T15:50:54.909Z,17.30
2022-10-11T15:53:31.429Z,16.90
2022-10-11T15:56:11.244Z,17.00
2022-10-11T15:58:44.525Z,17.10
2022-10-11T16:01:19.672Z,17.10
2022-10-11T16:06:24.981Z,17.10
2022-10-11T16:08:57.439Z,17.00
2022-10-11T16:11:29.414Z,17.00
2022-10-11T16:14:01.600Z,17.00
2022-10-11T16:16:33.500Z,16.90
2022-10-11T16:19:06.030Z,16.90
2022-10-11T16:21:38.000Z,16.90
2022-10-11T16:29:15.845Z,16.70
2022-10-11T16:31:47.760Z,16.70
2022-10-11T16:36:52.947Z,16.60
2022-10-11T16:39:25.536Z,16.50
2022-10-11T16:41:57.523Z,16.40
2022-10-11T16:54:47.562Z,15.90
2022-10-11T16:57:19.962Z,15.90
2022-10-11T16:59:52.466Z,15.80
2022-10-11T17:02:32.165Z,15.70
2022-10-11T17:05:05.733Z,15.60
2022-10-11T17:07:37.704Z,15.60
2022-10-11T17:15:23.420Z,15.50
2022-10-11T17:17:55.930Z,15.50
2022-10-11T17:25:33.762Z,15.50
2022-10-11T17:33:13.068Z,15.40
2022-10-11T17:38:19.729Z,15.20
2022-10-11T17:41:09.762Z,15.20
2022-10-11T17:43:42.023Z,15.10
2022-10-11T17:46:16.592Z,15.10
2022-10-11T17:48:49.165Z,15.10
2022-10-11T17:53:54.913Z,15.10
2022-10-11T17:56:32.530Z,15.20
2022-10-11T18:01:41.617Z,15.20
2022-10-11T18:04:17.162Z,15.20
2022-10-11T18:09:25.006Z,15.00
2022-10-11T18:11:56.951Z,14.90
2022-10-11T18:14:29.682Z,15.00
2022-10-11T18:17:01.665Z,15.00
2022-10-11T18:19:34.571Z,15.00
2022-10-11T18:22:07.386Z,15.00
2022-10-11T18:24:41.884Z,15.10
2022-10-11T18:27:13.826Z,15.10
2022-10-11T18:29:46.784Z,15.00
2022-10-11T18:32:19.021Z,15.00
2022-10-11T18:34:51.818Z,15.10
2022-10-11T18:37:23.843Z,15.00
2022-10-11T18:39:56.663Z,15.00
2022-10-11T18:42:28.636Z,15.00
2022-10-11T18:47:33.159Z,15.00
2022-10-11T18:50:06.704Z,15.10
2022-10-11T18:52:42.464Z,15.10
2022-10-11T18:55:17.651Z,15.10
2022-10-11T18:57:49.837Z,15.10
2022-10-11T19:00:41.445Z,15.20
2022-10-11T19:03:14.582Z,15.20
2022-10-11T19:05:46.842Z,15.30
2022-10-11T19:08:19.705Z,15.20
2022-10-11T19:13:25.653Z,15.20
2022-10-11T19:16:16.708Z,15.20
2022-10-11T19:18:53.056Z,15.20
2022-10-11T19:21:26.189Z,15.10
2022-10-11T19:23:58.292Z,15.20
2022-10-11T19:26:35.327Z,15.20
2022-10-11T19:29:14.927Z,15.20
2022-10-11T19:31:51.281Z,15.10
2022-10-11T19:34:27.438Z,15.10
2022-10-11T19:37:01.464Z,15.10
2022-10-11T19:39:33.634Z,15.00
2022-10-11T19:44:39.829Z,15.00
2022-10-11T19:47:12.347Z,15.00
2022-10-11T19:52:17.353Z,14.90
2022-10-11T19:57:22.189Z,16.40
2022-10-11T19:59:54.121Z,15.80
2022-10-11T20:02:26.517Z,15.50
2022-10-11T20:04:58.416Z,15.30
2022-10-11T20:07:31.107Z,15.20
2022-10-11T20:12:36.545Z,15.00
2022-10-11T20:15:09.095Z,14.80
2022-10-11T20:17:50.406Z,14.70
2022-10-11T20:20:22.392Z,14.70
2022-10-11T20:22:55.195Z,14.80
2022-10-11T20:27:59.971Z,14.80
2022-10-11T20:33:04.731Z,14.90
2022-10-11T20:35:36.658Z,14.90
2022-10-11T20:40:41.548Z,14.90
2022-10-11T20:43:15.184Z,14.80
2022-10-11T20:46:08.906Z,14.80
2022-10-11T20:51:14.060Z,14.60
2022-10-11T20:56:21.621Z,14.40
2022-10-11T20:58:56.429Z,14.30
2022-10-11T21:01:35.512Z,14.30
2022-10-11T21:04:18.246Z,14.20
2022-10-11T21:06:50.411Z,14.20
2022-10-11T21:09:22.938Z,14.20
2022-10-11T21:14:28.704Z,14.10
2022-10-11T21:17:00.653Z,14.10
2022-10-11T21:19:33.121Z,14.10
2022-10-11T21:24:39.180Z,14.10
2022-10-11T21:29:44.137Z,14.20
2022-10-11T21:32:16.187Z,14.20
2022-10-11T21:34:48.578Z,14.20
2022-10-11T21:37:20.547Z,14.20
2022-10-11T21:39:52.952Z,14.20
2022-10-11T21:42:29.435Z,14.20
2022-10-11T21:47:38.864Z,14.20
2022-10-11T21:50:11.706Z,14.20
2022-10-11T21:52:43.691Z,14.10
2022-10-11T21:57:48.523Z,14.20
2022-10-11T22:00:21.077Z,14.20
2022-10-11T22:05:27.108Z,14.20
2022-10-11T22:07:59.030Z,14.20
2022-10-11T22:10:31.468Z,14.20
2022-10-11T22:13:03.445Z,14.20
2022-10-11T22:15:36.334Z,14.20
2022-10-11T22:20:41.107Z,14.10
2022-10-11T22:23:13.114Z,14.00
2022-10-11T22:25:46.296Z,14.00
2022-10-11T22:28:18.253Z,14.00
2022-10-11T22:30:50.683Z,14.00
2022-10-11T22:33:22.611Z,13.90
2022-10-11T22:35:59.956Z,13.90
2022-10-11T22:41:04.717Z,13.90
2022-10-11T22:43:36.819Z,13.90
2022-10-11T22:46:09.722Z,13.90
2022-10-11T22:48:41.643Z,13.90
2022-10-11T22:51:14.681Z,13.90
2022-10-11T22:53:46.653Z,13.90
2022-10-11T22:58:51.370Z,13.90
2022-10-11T23:01:23.776Z,13.70
2022-10-11T23:03:56.529Z,13.80
2022-10-11T23:06:29.079Z,13.80
2022-10-11T23:11:34.812Z,13.70
2022-10-11T23:14:06.793Z,13.70
2022-10-11T23:19:11.587Z,13.70
2022-10-11T23:24:16.348Z,13.60
2022-10-11T23:26:48.939Z,13.70
2022-10-11T23:29:21.063Z,13.60
2022-10-11T23:31:53.467Z,13.60
2022-10-11T23:34:25.478Z,13.80
2022-10-11T23:36:58.044Z,13.80
2022-10-11T23:39:30.044Z,13.90
2022-10-11T23:42:02.573Z,13.90
2022-10-11T23:47:07.324Z,13.80
2022-10-11T23:49:39.476Z,13.80
2022-10-11T23:52:11.979Z,13.90
2022-10-11T23:57:16.690Z,13.90
2022-10-11T23:59:48.612Z,13.80
